Time;durP1;ratioP1;P1;durP2;ratioP2;P2;SDS_P1;SDS_P2;PMS_P1;PMS_P2;Temp;Humidity;BMP_temperature;BMP_pressure;BME280_temperature;BME280_humidity;BME280_pressure;Samples;Min_cycle;Max_cycle;Signal;HPM_P1;HPM_P2
2022/01/27 00:00:38;;;;;;;18.30;8.77;;;7.30;61.90;;;5.59;67.68;101945.63;8417896;28;20114;-81
2022/01/27 00:05:20;;;;;;;16.25;8.23;;;7.30;62.00;;;5.54;67.42;101921.53;8434894;28;20103;-81
2022/01/27 00:09:54;;;;;;;17.73;8.52;;;7.30;62.00;;;5.55;66.88;101920.63;8420863;28;20123;-81
2022/01/27 00:14:19;;;;;;;19.63;8.02;;;7.60;62.20;;;5.51;67.50;101911.22;8421024;28;20560;-82
2022/01/27 00:18:45;;;;;;;17.00;8.18;;;7.20;61.90;;;5.67;67.13;101935.13;8408458;28;20572;-82
2022/01/27 00:23:07;;;;;;;16.85;8.45;;;7.20;61.80;;;5.63;67.30;101913.59;8400314;28;20127;-81
2022/01/27 00:27:28;;;;;;;18.90;8.82;;;7.40;62.00;;;5.55;66.97;101898.16;8423081;28;20053;-81
2022/01/27 00:31:50;;;;;;;14.73;8.00;;;7.40;62.00;;;5.60;67.03;101885.16;8412261;28;20124;-82
2022/01/27 00:36:12;;;;;;;17.50;7.75;;;7.30;61.90;;;5.52;67.03;101874.06;8416651;28;20115;-81
2022/01/27 00:40:34;;;;;;;18.08;8.30;;;7.40;62.00;;;5.63;66.90;101885.09;8421029;28;20111;-81
2022/01/27 00:44:57;;;;;;;17.20;7.68;;;7.40;62.10;;;5.71;67.33;101887.56;8394032;28;20120;-82
2022/01/27 00:49:19;;;;;;;18.88;8.30;;;7.40;62.10;;;5.72;66.99;101889.28;8411292;28;20548;-82
2022/01/27 00:53:47;;;;;;;15.85;7.00;;;7.30;62.10;;;5.72;67.49;101869.38;8414684;28;20044;-81
2022/01/27 00:58:45;;;;;;;14.13;7.63;;;7.40;62.20;;;5.56;66.99;101829.06;8423489;28;20100;-82
2022/01/27 01:03:00;;;;;;;15.85;8.30;;;7.50;62.30;;;5.69;67.16;101846.13;8396303;28;20127;-81
2022/01/27 01:07:22;;;;;;;14.00;7.18;;;7.40;62.30;;;5.65;67.39;101835.84;8408345;28;20114;-81
2022/01/27 01:21:24;;;;;;;12.73;6.30;;;7.40;62.30;;;5.57;67.03;101806.63;8417916;28;20544;-81
2022/01/27 01:34:48;;;;;;;12.82;6.00;;;7.30;62.40;;;5.63;67.11;101816.88;8400124;28;20123;-82
2022/01/27 01:39:12;;;;;;;10.35;5.57;;;7.30;62.50;;;5.49;67.22;101786.03;8429680;28;20503;-81
2022/01/27 01:43:34;;;;;;;11.10;6.35;;;7.30;62.40;;;5.69;67.38;101821.94;8399278;28;20553;-81
2022/01/27 01:47:55;;;;;;;11.13;5.95;;;7.20;62.30;;;5.68;67.50;101804.69;8416932;28;20127;-81
2022/01/27 01:52:17;;;;;;;13.40;6.53;;;7.30;62.40;;;5.58;67.10;101777.25;8435446;28;20058;-81
2022/01/27 01:56:42;;;;;;;8.73;5.22;;;7.30;62.40;;;5.73;66.95;101800.31;8421379;28;20119;-81
2022/01/27 02:01:04;;;;;;;9.77;5.43;;;7.40;62.50;;;5.66;67.09;101780.53;8410524;28;20066;-81
2022/01/27 02:05:31;;;;;;;11.60;5.97;;;7.40;62.50;;;5.69;67.22;101781.34;8418697;28;20131;-81
2022/01/27 02:10:17;;;;;;;14.82;7.25;;;7.40;62.40;;;5.74;67.63;101766.56;8421620;28;20445;-82
2022/01/27 02:19:23;;;;;;;10.23;5.68;;;7.40;62.20;;;5.65;67.46;101733.06;8403238;28;20522;-81
2022/01/27 02:23:44;;;;;;;11.38;6.38;;;7.20;61.90;;;5.73;67.20;101731.19;8425288;28;20477;-81
2022/01/27 02:28:06;;;;;;;12.02;6.30;;;7.50;62.20;;;5.64;67.03;101700.22;8427045;28;20127;-81
2022/01/27 02:32:28;;;;;;;12.23;6.05;;;7.40;62.00;;;5.67;67.29;101715.75;8423236;28;20469;-82
2022/01/27 02:36:50;;;;;;;13.23;6.60;;;7.40;62.00;;;5.64;67.22;101709.75;8425545;28;20110;-81
2022/01/27 02:41:11;;;;;;;12.85;6.50;;;7.40;62.00;;;5.56;67.71;101686.56;8405401;28;20585;-81
2022/01/27 02:45:54;;;;;;;13.23;6.95;;;7.30;61.90;;;5.57;67.30;101683.13;8414684;28;20107;-81
2022/01/27 02:50:16;;;;;;;13.40;7.30;;;7.30;62.00;;;5.58;66.95;101683.97;8408458;28;20131;-81
2022/01/27 02:54:37;;;;;;;11.82;6.65;;;7.30;62.00;;;5.54;67.29;101675.41;8421629;28;20045;-81
2022/01/27 02:58:59;;;;;;;13.63;7.03;;;7.20;61.90;;;5.59;67.31;101672.72;8405584;28;20139;-81
2022/01/27 03:03:21;;;;;;;10.82;5.60;;;7.30;62.00;;;5.60;67.57;101680.47;8416297;28;20126;-81
2022/01/27 03:07:47;;;;;;;13.38;7.35;;;7.30;62.00;;;5.49;67.06;101651.31;8414920;28;20452;-81
2022/01/27 03:12:11;;;;;;;14.63;7.38;;;7.20;62.00;;;5.50;66.94;101655.63;8401642;28;20040;-81
2022/01/27 03:16:33;;;;;;;15.38;8.05;;;7.30;62.00;;;5.50;67.06;101627.13;8405396;28;20568;-81
2022/01/27 03:20:55;;;;;;;11.40;6.93;;;7.30;62.00;;;5.65;67.14;101637.19;8408041;28;20488;-81
2022/01/27 03:25:17;;;;;;;12.75;7.35;;;7.30;61.90;;;5.66;67.51;101635.44;8420167;28;20199;-81
2022/01/27 03:29:39;;;;;;;13.38;7.03;;;7.30;62.00;;;5.62;67.67;101628.63;8425730;28;20503;-81
2022/01/27 03:34:00;;;;;;;10.52;5.63;;;7.30;62.00;;;5.55;67.39;101607.16;8417436;28;20034;-81
2022/01/27 03:38:22;;;;;;;11.75;7.03;;;7.30;62.00;;;5.59;67.01;101613.13;8423101;28;20115;-81
2022/01/27 03:42:50;;;;;;;15.60;8.18;;;7.20;61.90;;;5.66;67.02;101614.72;8414867;28;20122;-82
2022/01/27 03:47:12;;;;;;;15.10;7.68;;;7.30;62.00;;;5.50;67.09;101583.06;8412037;28;20115;-81
2022/01/27 03:51:34;;;;;;;13.45;6.65;;;7.30;62.00;;;5.59;67.15;101575.13;8393189;28;20548;-81
2022/01/27 03:55:56;;;;;;;10.68;6.07;;;7.30;62.00;;;5.57;67.55;101574.31;8415394;28;20116;-81
2022/01/27 04:00:18;;;;;;;11.07;6.03;;;7.30;62.10;;;5.58;67.70;101573.41;8418247;28;20092;-81
2022/01/27 04:04:40;;;;;;;9.68;5.55;;;7.30;62.10;;;5.70;67.32;101583.53;8415271;28;20120;-81
2022/01/27 04:09:05;;;;;;;9.00;5.72;;;7.20;62.10;;;5.65;66.97;101561.19;8417864;28;20584;-81
2022/01/27 04:13:27;;;;;;;9.55;6.05;;;7.30;62.20;;;5.53;66.88;101551.94;8416670;28;20565;-81
2022/01/27 04:17:49;;;;;;;9.32;5.18;;;7.40;62.30;;;5.66;67.02;101568.06;8419981;28;20111;-81
2022/01/27 04:22:10;;;;;;;11.27;6.88;;;7.40;62.30;;;5.60;67.47;101553.50;8426811;28;20567;-81
2022/01/27 04:26:43;;;;;;;10.40;5.05;;;7.30;62.30;;;5.60;66.86;101545.75;8426061;28;20038;-81
2022/01/27 04:31:07;;;;;;;11.55;6.63;;;7.40;62.30;;;5.58;67.39;101537.13;8390848;28;20568;-81
2022/01/27 04:35:33;;;;;;;8.77;5.55;;;7.30;62.30;;;5.72;66.93;101548.06;8405930;28;20459;-81
2022/01/27 04:40:10;;;;;;;;;;;7.30;62.20;;;5.78;67.32;101557.47;8406640;28;20111;-81
2022/01/27 04:44:38;;;;;;;;;;;7.40;62.30;;;5.63;67.34;101531.88;8413984;28;20008;-81
2022/01/27 04:49:03;;;;;;;3.63;2.60;;;7.40;62.30;;;5.75;67.41;101540.25;8412739;28;20010;-81
2022/01/27 04:53:32;;;;;;;5.25;4.03;;;7.50;62.10;;;5.72;67.13;101535.09;8429781;28;20036;-81
2022/01/27 04:58:06;;;;;;;6.85;4.30;;;7.40;62.10;;;5.78;66.95;101536.72;8417769;28;20546;-81
2022/01/27 05:02:48;;;;;;;6.50;4.15;;;7.50;62.20;;;5.86;67.48;101549.50;8393067;28;20537;-80
2022/01/27 05:07:10;;;;;;;5.32;4.13;;;7.40;62.10;;;5.79;67.54;101527.22;8391663;28;20033;-81
2022/01/27 05:11:39;;;;;;;6.85;4.40;;;7.50;62.10;;;5.77;67.45;101509.94;8383707;28;20489;-80
2022/01/27 05:16:01;;;;;;;6.30;3.88;;;7.60;62.10;;;5.87;67.11;101494.19;8386398;28;20520;-81
2022/01/27 05:20:23;;;;;;;5.40;3.90;;;7.60;62.10;;;5.88;67.28;101469.97;8387121;28;20035;-81
2022/01/27 05:24:45;;;;;;;6.07;4.43;;;7.60;62.00;;;5.69;67.33;101443.63;8386341;28;20049;-81
2022/01/27 05:29:10;;;;;;;5.78;3.90;;;7.60;61.80;;;5.91;67.34;101451.75;8373044;28;20115;-82
2022/01/27 05:33:33;;;;;;;5.10;3.35;;;7.60;61.80;;;6.04;67.69;101465.31;8387897;28;20039;-85
2022/01/27 05:37:54;;;;;;;4.82;3.80;;;7.70;61.80;;;6.05;67.13;101460.09;8388290;28;20039;-81
2022/01/27 05:42:16;;;;;;;5.07;3.58;;;7.60;61.40;;;6.09;67.12;101450.47;8378864;28;20033;-80
2022/01/27 05:46:38;;;;;;;2.92;2.30;;;7.70;61.50;;;6.11;67.41;101435.75;8413416;28;20740;-81
2022/01/27 05:50:59;;;;;;;4.43;3.00;;;7.70;61.50;;;6.06;67.26;101411.69;8415765;28;20115;-82
2022/01/27 05:55:22;;;;;;;5.15;3.75;;;7.80;61.20;;;6.13;67.15;101428.75;8415402;28;20556;-80
2022/01/27 05:59:43;;;;;;;5.00;3.65;;;7.80;61.10;;;6.10;66.81;101419.34;8417985;28;20119;-82
2022/01/27 06:04:05;;;;;;;4.20;2.97;;;7.80;61.10;;;6.14;67.64;101428.72;8403175;28;20047;-81
2022/01/27 06:08:29;;;;;;;5.57;3.78;;;7.80;61.10;;;6.19;67.36;101436.41;8417671;28;20123;-79
2022/01/27 06:12:54;;;;;;;6.57;3.70;;;7.80;61.00;;;6.08;66.89;101423.72;8401827;28;20515;-80
2022/01/27 06:17:16;;;;;;;4.45;3.20;;;7.90;61.10;;;6.02;66.89;101403.09;8413488;28;20111;-80
2022/01/27 06:21:39;;;;;;;6.97;4.57;;;7.80;61.00;;;6.07;66.97;101403.84;8391420;28;20046;-80
2022/01/27 06:26:02;;;;;;;5.43;4.43;;;7.80;61.00;;;6.17;67.48;101405.31;8400349;28;20141;-81
2022/01/27 06:30:24;;;;;;;5.65;4.28;;;7.90;61.10;;;6.12;67.27;101383.00;8402178;28;20727;-80
2022/01/27 06:34:46;;;;;;;7.28;5.28;;;7.90;61.20;;;6.15;67.14;101393.28;8401592;28;20044;-82
2022/01/27 06:39:08;;;;;;;9.57;6.07;;;7.90;61.30;;;6.03;67.30;101391.03;8398090;28;20036;-81
2022/01/27 06:43:30;;;;;;;7.47;5.38;;;7.80;61.20;;;6.05;67.25;101389.22;8400170;28;20123;-81
2022/01/27 06:47:52;;;;;;;6.07;4.55;;;7.80;61.20;;;6.02;66.75;101372.00;8422491;28;20107;-82
2022/01/27 06:52:14;;;;;;;6.03;4.70;;;7.70;61.20;;;6.04;67.39;101379.75;8402301;28;20544;-81
2022/01/27 06:56:36;;;;;;;6.03;4.78;;;7.70;61.40;;;6.01;67.40;101356.50;8424883;28;20123;-80
2022/01/27 07:00:58;;;;;;;7.20;4.82;;;7.70;61.40;;;6.00;66.63;101355.66;8406537;28;20115;-81
2022/01/27 07:05:19;;;;;;;6.70;5.15;;;7.70;61.50;;;5.98;67.36;101372.97;8420198;28;20115;-81
2022/01/27 07:09:41;;;;;;;10.25;6.03;;;7.70;61.50;;;5.93;67.43;101365.31;8411225;28;20123;-80
2022/01/27 07:14:03;;;;;;;5.85;4.65;;;7.60;61.50;;;5.93;66.96;101372.22;8411931;28;20119;-81
2022/01/27 07:18:26;;;;;;;8.93;5.18;;;7.60;61.50;;;5.87;67.27;101359.41;8409353;28;20611;-81
2022/01/27 07:22:48;;;;;;;8.00;6.03;;;7.90;61.80;;;5.84;66.99;101356.91;8419910;28;20145;-80
2022/01/27 07:27:10;;;;;;;7.25;5.40;;;7.60;61.70;;;5.92;67.51;101361.00;8390687;28;20119;-82
2022/01/27 07:31:32;;;;;;;9.23;6.57;;;7.60;61.80;;;5.93;66.81;101349.75;8393503;28;20047;-81
2022/01/27 07:35:54;;;;;;;9.48;5.90;;;7.60;61.70;;;5.96;66.82;101354.00;8398144;28;20128;-81
2022/01/27 07:40:15;;;;;;;7.75;5.63;;;7.60;61.70;;;5.92;66.97;101349.78;8403758;28;20043;-85
2022/01/27 07:44:37;;;;;;;13.20;7.13;;;7.60;61.80;;;5.87;67.04;101333.50;8417403;28;20119;-80
2022/01/27 07:48:59;;;;;;;9.23;5.88;;;7.60;61.80;;;5.85;67.13;101330.09;8403653;28;20453;-80
2022/01/27 07:53:21;;;;;;;9.55;6.82;;;7.60;61.80;;;5.89;66.79;101337.75;8408255;28;20121;-79
2022/01/27 07:57:43;;;;;;;9.43;6.65;;;7.70;61.90;;;5.83;67.10;101316.31;8393670;28;20812;-81
2022/01/27 08:02:05;;;;;;;12.88;6.93;;;7.50;61.80;;;5.88;66.98;101323.06;8406079;28;20127;-80
2022/01/27 08:06:27;;;;;;;12.80;8.27;;;7.60;61.90;;;5.83;66.79;101311.97;8410507;28;20123;-79
2022/01/27 08:10:49;;;;;;;11.70;7.18;;;7.50;61.80;;;5.91;66.96;101338.56;8412797;28;20460;-80
2022/01/27 08:15:12;;;;;;;11.05;7.38;;;7.60;61.80;;;5.90;66.74;101328.22;8414121;28;20123;-81
2022/01/27 08:19:34;;;;;;;10.95;6.75;;;7.60;61.80;;;5.89;66.84;101323.94;8407122;28;20099;-80
2022/01/27 08:23:56;;;;;;;9.35;6.25;;;7.50;61.60;;;5.87;67.23;101313.59;8386766;28;20115;-81
2022/01/27 08:28:28;;;;;;;11.77;7.45;;;7.40;61.50;;;5.79;66.83;101296.56;8423928;28;20195;-81
2022/01/27 08:32:58;;;;;;;10.98;7.35;;;7.50;61.50;;;5.67;66.87;101280.44;8407004;28;20377;-80
2022/01/27 08:37:21;;;;;;;11.48;7.47;;;7.50;61.50;;;5.77;66.88;101289.66;8416801;28;20115;-82
2022/01/27 08:41:43;;;;;;;9.40;6.10;;;7.40;61.40;;;5.82;66.74;101284.38;8401818;28;20120;-81
2022/01/27 08:46:04;;;;;;;12.15;7.88;;;7.70;61.70;;;5.63;67.09;101247.72;8397919;28;20455;-81
2022/01/27 08:50:27;;;;;;;12.40;7.97;;;7.50;61.20;;;5.72;66.81;101273.38;8407632;28;20050;-81
2022/01/27 08:54:49;;;;;;;10.52;6.85;;;7.40;60.90;;;5.81;67.23;101279.25;8408216;28;20034;-80
2022/01/27 08:59:11;;;;;;;10.70;7.35;;;7.50;61.20;;;5.76;66.88;101258.63;8427392;28;20127;-79
2022/01/27 09:03:34;;;;;;;10.15;6.35;;;7.50;61.20;;;5.69;67.33;101257.91;8419530;28;20127;-82
2022/01/27 09:07:57;;;;;;;9.18;5.82;;;7.40;61.20;;;5.76;66.93;101261.22;8424881;28;20119;-82
2022/01/27 09:12:18;;;;;;;8.57;5.57;;;7.50;61.20;;;5.79;67.46;101262.88;8398067;28;20040;-81
2022/01/27 09:16:41;;;;;;;11.68;6.72;;;7.40;61.00;;;5.75;66.76;101260.38;8404051;28;20111;-81
2022/01/27 09:21:10;;;;;;;8.57;5.70;;;7.40;60.90;;;5.62;66.71;101240.00;8421945;28;20123;-81
2022/01/27 09:25:41;;;;;;;9.60;6.13;;;7.40;60.80;;;5.69;66.89;101241.53;8392435;28;20120;-81
2022/01/27 09:30:03;;;;;;;11.70;6.35;;;7.40;60.70;;;5.69;67.12;101231.16;8418223;28;20115;-81
2022/01/27 09:34:25;;;;;;;9.25;6.47;;;7.40;60.60;;;5.72;67.25;101242.28;8404633;28;20043;-81
2022/01/27 09:38:47;;;;;;;11.68;6.82;;;7.20;60.10;;;5.60;67.12;101219.31;8405137;28;20119;-81
2022/01/27 09:43:09;;;;;;;11.63;7.68;;;7.40;60.40;;;5.67;67.22;101246.75;8395818;28;20122;-80
2022/01/27 09:47:34;;;;;;;9.90;6.57;;;7.40;60.30;;;5.60;66.75;101224.50;8418130;28;20115;-80
2022/01/27 09:51:56;;;;;;;10.50;6.60;;;7.40;60.50;;;5.67;66.95;101236.41;8375951;28;20119;-80
2022/01/27 09:56:19;;;;;;;9.90;5.93;;;7.40;60.60;;;5.55;66.92;101213.41;8413124;28;20527;-80
2022/01/27 10:00:41;;;;;;;10.57;6.95;;;7.30;60.50;;;5.69;67.20;101225.97;8383057;28;20036;-80
2022/01/27 10:05:03;;;;;;;10.52;5.88;;;7.40;60.70;;;5.61;66.61;101207.19;8418807;28;20454;-80
2022/01/27 10:09:29;;;;;;;10.48;6.60;;;7.40;60.90;;;5.71;67.10;101208.66;8396798;28;20126;-81
2022/01/27 10:13:50;;;;;;;9.30;5.80;;;7.30;61.00;;;5.79;67.21;101208.47;8396292;28;20041;-80
2022/01/27 10:18:24;;;;;;;12.57;6.25;;;7.40;61.20;;;5.72;66.77;101190.47;8394192;28;20484;-80
2022/01/27 10:23:19;;;;;;;10.25;6.20;;;7.40;61.50;;;5.82;66.96;101206.63;8415337;28;20549;-80
2022/01/27 10:32:07;;;;;;;10.98;6.85;;;7.50;61.80;;;5.83;66.94;101210.06;8397912;28;20115;-79
2022/01/27 10:36:40;;;;;;;;;;;7.40;61.80;;;5.76;66.94;101188.66;8397339;28;20123;-80
2022/01/27 10:41:06;;;;;;;8.55;5.55;;;7.50;61.90;;;5.75;67.23;101189.53;8398843;28;19939;-80
2022/01/27 10:45:28;;;;;;;10.43;6.65;;;7.50;61.90;;;5.68;66.96;101173.31;8403242;28;20576;-80
2022/01/27 10:49:57;;;;;;;10.73;6.80;;;7.50;62.10;;;5.83;66.87;101186.72;8402900;28;20118;-80
2022/01/27 10:54:37;;;;;;;12.63;6.93;;;7.40;62.10;;;5.76;66.71;101176.53;8393733;28;20046;-80
2022/01/27 10:59:03;;;;;;;11.30;7.38;;;7.50;62.30;;;5.82;66.90;101174.69;8427526;28;20556;-80
2022/01/27 11:03:27;;;;;;;12.30;7.50;;;7.50;62.40;;;5.82;67.34;101180.69;8393630;28;20127;-80
2022/01/27 11:07:49;;;;;;;12.85;7.65;;;7.50;62.40;;;5.64;67.15;101142.34;8426513;28;20119;-80
2022/01/27 11:12:17;;;;;;;18.35;9.32;;;7.50;62.60;;;5.81;66.98;101162.63;8391818;28;20131;-80
2022/01/27 11:16:39;;;;;;;14.90;8.98;;;7.50;62.90;;;5.88;67.59;101158.94;8410906;28;20126;-80
2022/01/27 11:21:09;;;;;;;11.05;7.22;;;7.50;62.80;;;5.86;67.33;101156.41;8403679;28;20553;-80
2022/01/27 11:30:06;;;;;;;13.82;8.32;;;7.50;62.70;;;5.85;66.96;101148.66;8401415;28;20127;-80
2022/01/27 11:34:53;;;;;;;11.75;7.30;;;7.50;62.90;;;5.84;67.64;101142.66;8431790;28;20040;-80
2022/01/27 11:39:17;;;;;;;14.57;8.35;;;7.40;62.90;;;5.82;67.30;101133.22;8396506;28;20135;-80
2022/01/27 11:43:39;;;;;;;12.50;6.43;;;7.30;63.50;;;5.85;67.42;101133.13;8422322;28;20059;-80
2022/01/27 11:48:14;;;;;;;12.23;7.13;;;7.30;62.90;;;5.83;67.00;101108.97;8405008;28;20126;-80
2022/01/27 11:52:52;;;;;;;11.80;7.15;;;7.50;63.10;;;5.87;67.45;101110.59;8399260;28;20119;-80
2022/01/27 11:57:40;;;;;;;10.75;6.70;;;7.40;63.10;;;5.85;67.31;101105.47;8415995;28;20103;-80
2022/01/27 12:02:02;;;;;;;11.05;6.10;;;7.50;63.30;;;5.86;67.47;101099.41;8402892;28;20449;-81
2022/01/27 12:06:24;;;;;;;10.98;7.13;;;7.50;63.20;;;5.90;67.65;101105.31;8422939;28;20103;-81
2022/01/27 12:11:00;;;;;;;13.02;7.60;;;7.50;63.40;;;5.84;67.38;101074.41;8396343;28;20115;-81
2022/01/27 12:15:21;;;;;;;11.75;7.05;;;7.60;63.40;;;5.81;67.24;101069.34;8414109;28;20028;-80
2022/01/27 12:20:09;;;;;;;10.77;7.03;;;7.60;63.60;;;5.82;67.60;101071.03;8395653;28;20116;-80
2022/01/27 12:24:32;;;;;;;11.27;7.35;;;7.60;63.70;;;5.85;67.05;101060.56;8406260;28;20119;-80
2022/01/27 12:28:55;;;;;;;12.88;7.43;;;7.60;63.60;;;5.89;67.54;101062.19;8392429;28;20123;-81
2022/01/27 12:33:18;;;;;;;11.98;6.68;;;7.30;63.30;;;5.93;67.18;101048.22;8413770;28;20514;-81
2022/01/27 12:37:45;;;;;;;10.88;6.97;;;7.60;63.70;;;5.82;67.66;101029.56;8408264;28;20043;-82
2022/01/27 12:42:13;;;;;;;12.32;7.22;;;7.60;63.70;;;5.96;67.50;101046.41;8406348;28;20119;-80
2022/01/27 12:46:36;;;;;;;10.15;6.30;;;7.60;63.70;;;5.98;67.74;101036.00;8404154;28;20039;-81
2022/01/27 12:51:00;;;;;;;11.57;6.70;;;7.60;63.80;;;5.93;67.49;101006.75;8401896;28;20115;-82
2022/01/27 12:55:32;;;;;;;11.90;7.70;;;7.70;64.30;;;5.95;67.72;101010.16;8391138;28;20043;-80
2022/01/27 12:59:57;;;;;;;10.35;6.88;;;7.70;64.30;;;5.98;67.49;100999.72;8369517;28;20038;-80
2022/01/27 13:04:25;;;;;;;11.10;6.75;;;7.70;64.20;;;5.96;67.50;101006.69;8413167;28;20396;-80
2022/01/27 13:08:47;;;;;;;11.77;5.50;;;7.70;64.30;;;6.07;67.46;101014.13;8378225;28;20070;-80
2022/01/27 13:13:13;;;;;;;8.40;5.00;;;7.70;64.10;;;6.05;67.43;100989.97;8405005;28;20592;-80
2022/01/27 13:17:55;;;;;;;8.32;5.38;;;7.70;64.00;;;5.93;68.04;100954.91;8384329;28;20251;-80
2022/01/27 13:22:26;;;;;;;7.80;5.10;;;7.80;64.20;;;6.12;67.60;101000.09;8406809;28;20036;-80
2022/01/27 13:26:50;;;;;;;8.55;5.60;;;7.70;64.00;;;6.13;67.93;100965.53;8387410;28;20576;-80
2022/01/27 13:31:14;;;;;;;10.40;6.53;;;7.70;64.00;;;6.16;67.65;100967.16;8411747;28;20040;-80
2022/01/27 13:35:36;;;;;;;7.78;5.43;;;7.80;64.00;;;6.09;67.59;100956.13;8386416;28;20507;-80
2022/01/27 13:44:21;;;;;;;9.00;5.82;;;7.80;64.10;;;6.13;67.76;100957.75;8387907;28;20039;-80
2022/01/27 13:48:46;;;;;;;8.13;5.25;;;7.80;64.20;;;6.11;67.64;100943.13;8410043;28;20430;-80
2022/01/27 13:53:09;;;;;;;8.13;4.85;;;7.80;64.20;;;6.12;67.96;100939.63;8370551;28;20048;-80
2022/01/27 13:57:47;;;;;;;8.43;5.47;;;7.80;64.20;;;6.20;67.42;100959.22;8400129;28;20042;-80
2022/01/27 14:02:31;;;;;;;7.88;5.30;;;7.90;64.40;;;6.26;67.75;100958.16;8382526;28;20067;-80
2022/01/27 14:06:56;;;;;;;7.30;4.68;;;7.90;64.50;;;6.25;67.34;100945.25;8408809;28;20062;-80
2022/01/27 14:11:36;;;;;;;6.63;4.70;;;7.90;64.30;;;6.29;67.85;100952.91;8389590;28;20044;-80
2022/01/27 14:15:57;;;;;;;6.68;4.45;;;7.90;64.60;;;6.31;68.08;100953.66;8405287;28;20515;-80
2022/01/27 14:20:19;;;;;;;7.35;4.38;;;7.90;64.40;;;6.36;67.36;100948.34;8404375;28;20043;-80
2022/01/27 14:25:00;;;;;;;7.05;4.55;;;7.90;64.30;;;6.37;68.30;100950.88;8398420;28;20040;-80
2022/01/27 14:29:21;;;;;;;7.00;4.45;;;7.90;64.60;;;6.35;67.23;100946.66;8402048;28;20040;-80
2022/01/27 14:33:44;;;;;;;5.90;4.47;;;7.90;64.30;;;6.44;67.30;100943.72;8401291;28;20039;-80
2022/01/27 14:38:05;;;;;;;8.95;5.35;;;8.00;64.40;;;6.45;67.80;100932.44;8409539;28;20044;-80
2022/01/27 14:42:27;;;;;;;6.35;4.53;;;7.90;64.40;;;6.50;67.58;100946.09;8384205;28;20032;-80
2022/01/27 14:46:50;;;;;;;5.93;4.53;;;8.10;64.50;;;6.48;67.54;100947.94;8389554;28;20439;-80
2022/01/27 14:51:13;;;;;;;7.57;5.57;;;8.10;64.60;;;6.42;68.07;100935.97;8397331;28;20044;-80
2022/01/27 14:55:35;;;;;;;7.95;5.15;;;8.10;64.70;;;6.51;67.80;100932.25;8424946;28;20070;-80
2022/01/27 14:59:58;;;;;;;7.50;5.07;;;8.00;64.50;;;6.59;67.48;100939.78;8369535;28;20036;-80
2022/01/27 15:04:21;;;;;;;9.02;5.63;;;8.20;64.70;;;6.65;67.53;100935.19;8364572;28;20131;-80
2022/01/27 15:08:43;;;;;;;9.80;5.72;;;8.30;64.90;;;6.54;68.10;100900.16;8363462;28;20049;-80
2022/01/27 15:13:12;;;;;;;7.60;4.93;;;8.30;64.90;;;6.48;67.77;100896.03;8362194;28;20440;-80
2022/01/27 15:22:16;;;;;;;7.80;3.70;;;8.40;65.00;;;6.71;68.10;100913.38;8366416;28;20033;-80
2022/01/27 15:26:38;;;;;;;3.90;3.60;;;8.40;65.00;;;6.77;68.01;100914.88;8386046;28;20496;-80
2022/01/27 15:31:01;;;;;;;5.07;3.30;;;8.50;65.20;;;6.90;67.67;100929.13;8351886;28;20040;-81
2022/01/27 15:35:25;;;;;;;4.90;3.13;;;8.50;65.20;;;6.91;68.19;100906.59;8369811;28;20282;-81
2022/01/27 15:39:55;;;;;;;3.97;3.00;;;8.60;65.10;;;6.91;67.70;100907.44;8344386;28;20037;-80
2022/01/27 15:44:18;;;;;;;3.90;2.97;;;8.50;65.10;;;7.01;67.84;100916.56;8371397;28;20054;-80
2022/01/27 15:48:45;;;;;;;4.13;2.72;;;8.70;65.30;;;7.12;67.89;100918.78;8365267;28;20045;-81
2022/01/27 15:53:10;;;;;;;2.58;2.38;;;8.70;65.40;;;7.15;67.81;100910.88;8368490;28;20048;-79
2022/01/27 15:57:32;;;;;;;2.72;2.22;;;8.80;65.50;;;7.16;67.91;100890.97;8367693;28;20041;-80
2022/01/27 16:01:55;;;;;;;2.03;1.92;;;8.80;65.50;;;7.21;67.87;100892.47;8377682;28;20043;-79
2022/01/27 16:06:20;;;;;;;2.42;2.22;;;8.80;65.50;;;7.25;68.19;100878.44;8391028;28;20040;-79
2022/01/27 16:10:41;;;;;;;2.85;2.58;;;9.10;65.90;;;7.33;67.81;100875.56;8388195;28;20036;-79
2022/01/27 16:15:04;;;;;;;2.35;2.15;;;9.00;65.70;;;7.28;68.08;100851.50;8389595;28;20046;-79
2022/01/27 16:19:26;;;;;;;1.77;1.67;;;9.00;65.60;;;7.45;67.83;100866.41;8380729;28;20043;-79
2022/01/27 16:23:47;;;;;;;1.92;1.60;;;9.10;65.70;;;7.55;68.22;100880.75;8399055;28;20455;-79
2022/01/27 16:28:09;;;;;;;2.08;1.70;;;9.10;65.60;;;7.61;67.87;100884.84;8401441;28;20040;-80
2022/01/27 16:32:31;;;;;;;2.75;1.85;;;9.20;65.70;;;7.54;67.86;100868.66;8399076;28;20514;-80
2022/01/27 16:36:53;;;;;;;3.25;1.90;;;9.20;65.60;;;7.50;68.01;100854.94;8393822;28;20540;-79
2022/01/27 16:41:14;;;;;;;2.67;2.17;;;9.30;65.70;;;7.53;68.07;100844.44;8386949;28;20040;-80
2022/01/27 16:45:36;;;;;;;2.65;2.30;;;9.20;65.80;;;7.60;67.93;100851.97;8386742;28;20036;-80
2022/01/27 16:49:58;;;;;;;2.53;2.33;;;9.30;65.80;;;7.70;68.11;100858.50;8394635;28;20400;-80
2022/01/27 16:54:20;;;;;;;2.47;2.28;;;9.40;65.70;;;7.81;68.31;100861.50;8376800;28;20438;-80
2022/01/27 16:58:41;;;;;;;3.67;2.60;;;9.40;65.70;;;7.78;68.23;100839.94;8397045;28;20037;-80
2022/01/27 17:03:07;;;;;;;3.08;2.67;;;9.20;65.60;;;7.79;68.31;100834.72;8399677;28;20047;-79
2022/01/27 17:07:28;;;;;;;4.00;2.40;;;9.30;65.40;;;7.79;67.99;100832.09;8389258;28;20040;-81
2022/01/27 17:11:50;;;;;;;2.45;2.25;;;9.50;65.60;;;7.86;68.32;100848.31;8376112;28;20055;-78
2022/01/27 17:16:14;;;;;;;2.60;2.40;;;9.50;65.30;;;7.93;68.24;100860.97;8402494;28;20040;-80
2022/01/27 17:20:38;;;;;;;2.95;2.33;;;9.40;65.20;;;7.85;68.14;100829.25;8399586;28;20036;-79
2022/01/27 17:25:00;;;;;;;2.42;1.98;;;9.60;65.50;;;7.98;68.09;100859.00;8406559;28;20042;-80
2022/01/27 17:29:22;;;;;;;2.75;2.13;;;9.60;65.40;;;7.95;68.34;100846.16;8389212;28;20032;-80
2022/01/27 17:33:44;;;;;;;2.35;2.17;;;9.50;65.20;;;8.01;68.05;100844.19;8396956;28;20032;-80
2022/01/27 17:38:06;;;;;;;4.72;3.53;;;9.60;65.20;;;8.03;68.25;100829.38;8369123;28;20044;-80
2022/01/27 17:42:28;;;;;;;3.90;2.95;;;9.60;65.10;;;8.01;68.21;100831.19;8414527;28;20036;-80
2022/01/27 17:46:50;;;;;;;5.47;3.95;;;9.70;65.10;;;8.05;67.80;100844.00;8383710;28;20058;-79
2022/01/27 17:51:12;;;;;;;3.92;3.05;;;9.60;65.00;;;7.89;67.92;100811.78;8396109;28;20040;-79
2022/01/27 17:55:34;;;;;;;3.72;3.00;;;9.60;64.80;;;7.91;68.20;100818.59;8382758;28;20031;-79
2022/01/27 17:59:56;;;;;;;4.35;3.22;;;9.70;64.90;;;8.07;67.92;100842.16;8379125;28;20032;-79
2022/01/27 18:04:18;;;;;;;4.20;3.50;;;9.70;64.70;;;8.01;68.13;100813.00;8389287;28;20040;-78
2022/01/27 18:08:42;;;;;;;3.78;2.67;;;9.70;64.80;;;8.08;68.06;100830.03;8381085;28;20036;-80
2022/01/27 18:13:04;;;;;;;2.97;2.38;;;9.50;64.60;;;8.03;67.91;100808.59;8391282;28;20111;-80
2022/01/27 18:17:28;;;;;;;2.03;1.90;;;9.70;64.70;;;8.02;68.10;100806.88;8375301;28;20041;-81
2022/01/27 18:21:51;;;;;;;2.67;2.00;;;9.70;64.60;;;8.12;68.04;100835.00;8381467;28;20056;-80
2022/01/27 18:26:13;;;;;;;2.97;1.63;;;9.70;64.50;;;7.86;67.69;100785.91;8378671;28;20043;-81
2022/01/27 18:30:35;;;;;;;2.72;1.10;;;9.70;64.40;;;8.13;67.72;100828.94;8365451;28;20058;-81
2022/01/27 18:34:56;;;;;;;2.08;1.23;;;9.70;64.30;;;8.01;67.92;100793.03;8389788;28;20036;-80
2022/01/27 18:39:18;;;;;;;2.22;1.25;;;9.80;64.20;;;8.14;68.08;100819.34;8386429;28;20493;-81
2022/01/27 18:43:40;;;;;;;2.38;1.50;;;9.80;64.10;;;8.21;68.19;100823.41;8388657;28;20041;-79
2022/01/27 18:48:02;;;;;;;2.17;1.52;;;9.80;64.00;;;8.07;67.92;100786.72;8385866;28;20511;-80
2022/01/27 18:52:24;;;;;;;1.50;1.40;;;9.80;63.90;;;8.25;68.22;100814.53;8386030;28;20036;-80
2022/01/27 18:56:46;;;;;;;2.67;1.60;;;9.90;63.80;;;8.07;67.79;100786.72;8386390;28;20049;-80
2022/01/27 19:01:08;;;;;;;2.17;1.48;;;9.80;63.60;;;8.25;nan;100814.53;8385281;28;20489;-81
2022/01/27 19:05:30;;;;;;;2.55;1.65;;;9.90;63.40;;;8.03;67.71;100779.97;8383074;28;20032;-81
2022/01/27 19:09:52;;;;;;;2.00;1.50;;;9.90;63.20;;;8.22;67.83;100817.25;8368400;28;20040;-80
2022/01/27 19:14:14;;;;;;;1.88;1.27;;;9.90;63.00;;;8.11;67.74;100812.53;8388012;28;20051;-81
2022/01/27 19:18:36;;;;;;;1.90;1.23;;;9.80;62.90;;;8.19;67.65;100822.59;8386175;28;20036;-80